AirNav   Everest Fuels
 
 842 users online  

7AL9 Horak Airport
Elberta, Alabama, USA

GOING TO ELBERTA?


FAA INFORMATION EFFECTIVE 03 JANUARY 2019

Location

FAA Identifier: 7AL9
Lat/Long: 30-28-09.2200N / 087-32-38.0800W
30-28.153667N / 087-32.634667W
30.4692278 / -87.5439111
(estimated)
Elevation: 110 ft. / 34 m (estimated)
Variation: 01E (1985)
From city: 4 miles NE of ELBERTA, AL
Time zone: UTC -6 (UTC -5 during Daylight Saving Time)
Zip code: 36530

Airport Operations

Airport use: Private use. Permission required prior to landing
Activation date: 03/1972
Control tower: no
ARTCC: JACKSONVILLE CENTER
FSS: ANNISTON FLIGHT SERVICE STATION
Attendance: DAYLIGHT HOURS
Wind indicator: yes
Segmented circle: no

Airport Communications

WX AWOS-3PT at JKA (13 nm SW): 134.525 (251-968-7581)
WX AWOS-3PT at CQF (17 nm W): 118.425 (251-928-3242)
WX ASOS at PNS (18 nm E): PHONE 850-436-4799

Nearby radio navigation aids

VOR radial/distance  VOR name  Freq  Var
NUNr268/(10.8)SAUFLEY VOR108.8001E
BFMr104/27.8BROOKLEY VORTAC112.8004E

 
NDB name  Hdg/Dist  Freq  Var  ID
PICKENS278/19.032602WPKZ .--. -.- --..

Airport Services

Airframe service: NONE
Powerplant service: NONE

Runway Information

Runway 18/36

Dimensions: 2500 x 100 ft. / 762 x 30 m
Surface: turf
RUNWAY 18  RUNWAY 36
Traffic pattern: leftleft

Airport Ownership and Management from official FAA records

Ownership: Privately-owned
Owner: JAMES L. HORAK
16630 COUNTY ROAD 95
ELBERTA, AL 36530
Phone 251-986-5248

Airport Operational Statistics

Aircraft based on the field: 3
Single engine airplanes: 3
    

Additional Remarks

INTENSIVE PARACHUTE ACTIVITY DURING HRS OF OPERATION.

Instrument Procedures

There are no published instrument procedures at 7AL9.

Some nearby airports with instrument procedures:

5R4 - Foley Municipal Airport (8 nm W)
KJKA - Jack Edwards National Airport (13 nm SW)
KNPA - Pensacola Naval Air Station/Forrest Sherman Field (14 nm SE)
KCQF - H L Sonny Callahan Airport (17 nm W)
KPNS - Pensacola International Airport (18 nm E)
 
Loc | Ops | Rwys | IFR | FBO | Links
Com | Nav | Svcs | Stats | Notes

Continental Motors
AirBoss

 
Area around 7AL9 (Horak Airport)
 
Road maps at: MapQuest Bing Google
 
Aerial photo
No photo
 
Sectional chart

 
Airport distance calculator
Flying to Horak Airport? Find the distance to fly.

From to 7AL9

Sunrise and sunset
Times for 18-Jan-2019
 Local
(UTC-6)
 Zulu
(UTC)
Morning civil twilight06:2212:22
Sunrise06:4812:48
Sunset17:1323:13
Evening civil twilight17:3923:39

Current date and time
Zulu (UTC)  19-Jan-2019 03:21:44
Local (UTC-6)  18-Jan-2019 21:21:44
 
METAR
KJKA 
13nm SW 
190255Z AUTO 15003KT 10SM SCT020 SCT026 OVC049 16/15 A3002 RMK AO2 LTG DSNT NW T01560146
KNPA 
14nm SE 
190256Z 18007KT 9SM SCT045 BKN250 16/16 A3001 RMK AO2 SLP164 T01610156 58011
KCQF 
17nm W 
190255Z AUTO 15005KT 10SM SCT020 BKN055 15/15 A3001 RMK AO2
KPNS 
19nm E 
190253Z 19005KT 8SM CLR 16/14 A3002 RMK AO2 SLP166 T01560144 58008
TAF
KNPA 
14nm SE 
1823/1923 22006KT 9999 FEW020 SCT180 BKN250 QNH3001INS FM190600 18010KT 9999 VCSH SCT008 BKN020 OVC045 QNH3000INS TEMPO 1909/1913 BKN008 OVC015 FM191500 19014G21KT 9000 BR VCSH SCT007 BKN015 OVC040 QNH2984INS TEMPO 1915/1921 6000 SHRA BKN007 OVC015 FM192100 19015G24KT 8000 BR VCTS BKN015 BKN030CB OVC060 QNH2970INS TEMPO 1921/1923 VRB25G35KT 1200 +TSRA SCT007 BKN025CB BKN080 OVC120 AUTOMATED SENSOR METWATCH 1903 TIL 1912 T16/1911Z T20/1919Z FN20034
KPNS 
19nm E 
181727Z 1818/1918 28006KT P6SM BKN012 FM182000 19007KT P6SM SCT020 BKN250 FM190600 18007KT 6SM BR OVC007 FM191200 17012KT 5SM BR VCSH OVC015
NOTAMs
Click for the latest NOTAMs
NOTAMs are issued by the DoD/FAA and will open in a separate window not controlled by AirNav.

 

 
 

Would you like to see your business listed on this page?

 If your business provides an interesting product or service to pilots, flight crews, aircraft, or users of the Horak Airport, you should consider listing it here.  To start the listing process, click on the button below
 
Add a business
 

Other Pages about Horak Airport

Update a link
 
Copyright © AirNav, LLC. All rights reserved. Privacy Policy  Contact